LSZE weather

Bad Ragaz Airport
Canton of St. Gallen, Switzerland

Public forecast

Using degrees Celsius for public forecast. Weather courtesy of forecast.io.

Closest aviation weather report (METAR) to Bad Ragaz Airport

Report is more than 6 hours old.

Closest report is Hohenems-Dornbirn Airfield, 23.9 nm (44.3 km) NNE. Retrieved 2016/10/31 16:00 UTC (3 years ago):

LOIH 311600Z 00000KT 10KM OVC010ST 10/09 Q1026 RMK OVC

Closest aviation forecast (TAF) to Bad Ragaz Airport

Forecast is more than 12 hours old.

Closest forecast is Hohenems-Dornbirn Airfield, 23.9 nm (44.3 km) NNE. Retrieved 2016/10/31 12:00 UTC (3 years ago):

TAF TAF LOIH 311125Z 3112/3124 VRB01KT 9999 FEW005 OVC010 BECMG 3113/3115 SCT010